Terminal Aerodrome Forecast
Issued by NWS

Home | Current Version | Previous Version | Text Only | Print | Product List | Glossary On
Versions: 1 2 3 4 5 6 7 8 9 10 11 12 13 14 15 16 17 18 19 20 21 22 23 24 25
000
FTUS43 KAPX 031120
TAFMBL
TAF
KMBL 031120Z 0312/0412 29004KT P6SM SCT002 OVC005
     FM031300 29004KT P6SM BKN015
     FM031400 29009KT P6SM SCT040
     FM031900 27009KT P6SM SCT050
     FM040100 VRB03KT P6SM BKN060
      AMD LTD TO CLD VIS AND WIND=

USA.gov is the U.S. government's official web portal to all federal, state and local government web resources and services.